sensor_id;sensor_type;location;lat;lon;timestamp;P1;durP1;ratioP1;P2;durP2;ratioP2
950;SDS011;462;48.758;9.256;2022-10-16T00:01:23;4.57;;;2.67;;
950;SDS011;462;48.758;9.256;2022-10-16T00:09:26;4.23;;;2.37;;
950;SDS011;462;48.758;9.256;2022-10-16T00:17:30;8.00;;;2.63;;
950;SDS011;462;48.758;9.256;2022-10-16T00:25:33;6.30;;;2.67;;
950;SDS011;462;48.758;9.256;2022-10-16T00:33:38;2.90;;;2.70;;
950;SDS011;462;48.758;9.256;2022-10-16T00:41:41;3.80;;;3.00;;
950;SDS011;462;48.758;9.256;2022-10-16T00:49:44;3.77;;;2.70;;
950;SDS011;462;48.758;9.256;2022-10-16T00:57:48;4.40;;;2.40;;
950;SDS011;462;48.758;9.256;2022-10-16T01:05:55;5.03;;;2.50;;
950;SDS011;462;48.758;9.256;2022-10-16T01:14:11;6.63;;;2.50;;
950;SDS011;462;48.758;9.256;2022-10-16T01:22:17;8.87;;;2.77;;
950;SDS011;462;48.758;9.256;2022-10-16T01:30:23;5.07;;;3.27;;
950;SDS011;462;48.758;9.256;2022-10-16T01:38:29;6.30;;;3.30;;
950;SDS011;462;48.758;9.256;2022-10-16T01:46:36;5.63;;;2.70;;
950;SDS011;462;48.758;9.256;2022-10-16T01:54:40;7.97;;;2.40;;
950;SDS011;462;48.758;9.256;2022-10-16T02:02:47;5.70;;;2.87;;
950;SDS011;462;48.758;9.256;2022-10-16T02:10:51;7.03;;;2.47;;
950;SDS011;462;48.758;9.256;2022-10-16T02:18:55;6.23;;;3.20;;
950;SDS011;462;48.758;9.256;2022-10-16T02:26:58;9.03;;;2.70;;
950;SDS011;462;48.758;9.256;2022-10-16T02:35:06;7.40;;;3.10;;
950;SDS011;462;48.758;9.256;2022-10-16T02:43:09;8.33;;;3.17;;
950;SDS011;462;48.758;9.256;2022-10-16T02:51:13;6.67;;;3.13;;
950;SDS011;462;48.758;9.256;2022-10-16T02:59:15;5.00;;;2.77;;
950;SDS011;462;48.758;9.256;2022-10-16T03:07:19;3.37;;;3.00;;
950;SDS011;462;48.758;9.256;2022-10-16T03:15:21;11.47;;;3.07;;
950;SDS011;462;48.758;9.256;2022-10-16T03:23:25;4.10;;;2.80;;
950;SDS011;462;48.758;9.256;2022-10-16T03:31:28;8.47;;;2.80;;
950;SDS011;462;48.758;9.256;2022-10-16T03:39:32;8.93;;;3.07;;
950;SDS011;462;48.758;9.256;2022-10-16T03:47:35;9.30;;;2.70;;
950;SDS011;462;48.758;9.256;2022-10-16T03:55:40;8.10;;;2.90;;
950;SDS011;462;48.758;9.256;2022-10-16T04:03:43;6.83;;;3.27;;
950;SDS011;462;48.758;9.256;2022-10-16T04:11:47;8.27;;;3.40;;
950;SDS011;462;48.758;9.256;2022-10-16T04:19:49;11.63;;;3.87;;
950;SDS011;462;48.758;9.256;2022-10-16T04:27:53;5.97;;;3.20;;
950;SDS011;462;48.758;9.256;2022-10-16T04:35:56;5.27;;;3.27;;
950;SDS011;462;48.758;9.256;2022-10-16T04:44:00;6.07;;;3.63;;
950;SDS011;462;48.758;9.256;2022-10-16T04:52:02;10.57;;;3.63;;
950;SDS011;462;48.758;9.256;2022-10-16T05:00:07;7.63;;;3.20;;
950;SDS011;462;48.758;9.256;2022-10-16T05:08:10;6.87;;;3.00;;
950;SDS011;462;48.758;9.256;2022-10-16T05:16:14;6.10;;;2.90;;
950;SDS011;462;48.758;9.256;2022-10-16T05:24:17;4.43;;;3.30;;
950;SDS011;462;48.758;9.256;2022-10-16T05:32:21;8.10;;;3.40;;
950;SDS011;462;48.758;9.256;2022-10-16T05:40:23;6.50;;;3.40;;
950;SDS011;462;48.758;9.256;2022-10-16T05:48:28;5.20;;;2.90;;
950;SDS011;462;48.758;9.256;2022-10-16T05:56:30;3.93;;;2.67;;
950;SDS011;462;48.758;9.256;2022-10-16T06:04:34;3.47;;;3.00;;
950;SDS011;462;48.758;9.256;2022-10-16T06:12:37;3.13;;;2.83;;
950;SDS011;462;48.758;9.256;2022-10-16T06:20:41;7.47;;;3.67;;
950;SDS011;462;48.758;9.256;2022-10-16T06:28:43;5.07;;;3.20;;
950;SDS011;462;48.758;9.256;2022-10-16T06:36:47;4.30;;;2.40;;
950;SDS011;462;48.758;9.256;2022-10-16T06:44:49;3.93;;;3.00;;
950;SDS011;462;48.758;9.256;2022-10-16T06:52:53;4.93;;;2.80;;
950;SDS011;462;48.758;9.256;2022-10-16T07:00:56;5.83;;;2.50;;
950;SDS011;462;48.758;9.256;2022-10-16T07:09:00;5.23;;;3.17;;
950;SDS011;462;48.758;9.256;2022-10-16T07:17:04;6.07;;;3.30;;
950;SDS011;462;48.758;9.256;2022-10-16T07:25:08;11.33;;;2.80;;
950;SDS011;462;48.758;9.256;2022-10-16T07:33:11;8.03;;;3.20;;
950;SDS011;462;48.758;9.256;2022-10-16T07:41:15;4.43;;;3.77;;
950;SDS011;462;48.758;9.256;2022-10-16T07:49:19;8.23;;;3.27;;
950;SDS011;462;48.758;9.256;2022-10-16T07:57:22;6.43;;;3.60;;
950;SDS011;462;48.758;9.256;2022-10-16T08:05:25;4.00;;;2.67;;
950;SDS011;462;48.758;9.256;2022-10-16T08:13:28;6.93;;;2.77;;
950;SDS011;462;48.758;9.256;2022-10-16T08:21:31;3.53;;;3.07;;
950;SDS011;462;48.758;9.256;2022-10-16T08:29:35;8.10;;;4.43;;
950;SDS011;462;48.758;9.256;2022-10-16T08:37:38;9.63;;;3.03;;
950;SDS011;462;48.758;9.256;2022-10-16T08:45:45;5.50;;;3.07;;
950;SDS011;462;48.758;9.256;2022-10-16T08:54:23;3.00;;;2.80;;
950;SDS011;462;48.758;9.256;2022-10-16T09:02:32;6.70;;;2.40;;
950;SDS011;462;48.758;9.256;2022-10-16T09:10:38;2.20;;;2.00;;
950;SDS011;462;48.758;9.256;2022-10-16T09:18:48;3.87;;;2.47;;
950;SDS011;462;48.758;9.256;2022-10-16T09:26:53;3.90;;;2.13;;
950;SDS011;462;48.758;9.256;2022-10-16T09:34:57;4.87;;;2.17;;
950;SDS011;462;48.758;9.256;2022-10-16T09:43:01;4.63;;;2.20;;
950;SDS011;462;48.758;9.256;2022-10-16T09:51:16;3.07;;;2.20;;
950;SDS011;462;48.758;9.256;2022-10-16T09:59:22;5.47;;;2.57;;
950;SDS011;462;48.758;9.256;2022-10-16T10:07:28;2.17;;;2.00;;
950;SDS011;462;48.758;9.256;2022-10-16T10:15:34;5.50;;;2.50;;
950;SDS011;462;48.758;9.256;2022-10-16T10:23:43;5.53;;;3.73;;
950;SDS011;462;48.758;9.256;2022-10-16T10:32:01;3.10;;;2.70;;
950;SDS011;462;48.758;9.256;2022-10-16T10:40:14;2.70;;;1.73;;
950;SDS011;462;48.758;9.256;2022-10-16T10:48:27;3.97;;;1.90;;
950;SDS011;462;48.758;9.256;2022-10-16T10:56:47;3.03;;;1.70;;
950;SDS011;462;48.758;9.256;2022-10-16T11:04:57;2.10;;;1.90;;
950;SDS011;462;48.758;9.256;2022-10-16T11:13:21;4.33;;;1.87;;
950;SDS011;462;48.758;9.256;2022-10-16T11:21:29;3.93;;;1.50;;
950;SDS011;462;48.758;9.256;2022-10-16T11:29:36;4.80;;;1.83;;
950;SDS011;462;48.758;9.256;2022-10-16T11:37:46;3.50;;;2.23;;
950;SDS011;462;48.758;9.256;2022-10-16T11:45:52;2.93;;;1.90;;
950;SDS011;462;48.758;9.256;2022-10-16T11:53:58;2.63;;;2.00;;
950;SDS011;462;48.758;9.256;2022-10-16T12:02:13;2.07;;;1.70;;
950;SDS011;462;48.758;9.256;2022-10-16T12:10:28;3.03;;;1.37;;
950;SDS011;462;48.758;9.256;2022-10-16T12:18:38;2.00;;;1.10;;
950;SDS011;462;48.758;9.256;2022-10-16T12:26:41;2.50;;;1.50;;
950;SDS011;462;48.758;9.256;2022-10-16T12:34:47;1.53;;;1.43;;
950;SDS011;462;48.758;9.256;2022-10-16T12:42:50;6.73;;;1.73;;
950;SDS011;462;48.758;9.256;2022-10-16T12:50:54;2.60;;;1.30;;
950;SDS011;462;48.758;9.256;2022-10-16T12:58:59;1.57;;;1.47;;
950;SDS011;462;48.758;9.256;2022-10-16T13:07:17;4.13;;;2.00;;
950;SDS011;462;48.758;9.256;2022-10-16T13:15:32;4.50;;;2.60;;
950;SDS011;462;48.758;9.256;2022-10-16T13:23:44;2.37;;;2.17;;
950;SDS011;462;48.758;9.256;2022-10-16T13:31:52;2.13;;;1.60;;
950;SDS011;462;48.758;9.256;2022-10-16T13:40:04;1.50;;;1.40;;
950;SDS011;462;48.758;9.256;2022-10-16T13:48:13;14.23;;;11.90;;
950;SDS011;462;48.758;9.256;2022-10-16T13:56:18;8.07;;;3.73;;
950;SDS011;462;48.758;9.256;2022-10-16T14:04:22;2.70;;;2.20;;
950;SDS011;462;48.758;9.256;2022-10-16T14:12:25;2.63;;;2.43;;
950;SDS011;462;48.758;9.256;2022-10-16T14:20:28;3.53;;;2.20;;
950;SDS011;462;48.758;9.256;2022-10-16T14:28:33;6.77;;;5.20;;
950;SDS011;462;48.758;9.256;2022-10-16T14:36:36;15.27;;;4.17;;
950;SDS011;462;48.758;9.256;2022-10-16T14:44:44;5.87;;;3.23;;
950;SDS011;462;48.758;9.256;2022-10-16T14:52:47;2.87;;;2.60;;
950;SDS011;462;48.758;9.256;2022-10-16T15:00:51;5.40;;;2.80;;
950;SDS011;462;48.758;9.256;2022-10-16T15:08:53;5.87;;;4.47;;
950;SDS011;462;48.758;9.256;2022-10-16T15:16:57;9.03;;;3.90;;
950;SDS011;462;48.758;9.256;2022-10-16T15:24:59;5.63;;;3.30;;
950;SDS011;462;48.758;9.256;2022-10-16T15:33:04;6.40;;;2.70;;
950;SDS011;462;48.758;9.256;2022-10-16T15:41:10;13.73;;;5.63;;
950;SDS011;462;48.758;9.256;2022-10-16T15:49:14;18.83;;;8.47;;
950;SDS011;462;48.758;9.256;2022-10-16T15:57:17;25.63;;;11.53;;
950;SDS011;462;48.758;9.256;2022-10-16T16:05:21;23.10;;;11.33;;
950;SDS011;462;48.758;9.256;2022-10-16T16:13:24;9.57;;;7.23;;
950;SDS011;462;48.758;9.256;2022-10-16T16:21:27;9.60;;;5.60;;
950;SDS011;462;48.758;9.256;2022-10-16T16:29:30;5.07;;;3.20;;
950;SDS011;462;48.758;9.256;2022-10-16T16:37:33;8.37;;;3.37;;
950;SDS011;462;48.758;9.256;2022-10-16T16:45:36;6.13;;;3.70;;
950;SDS011;462;48.758;9.256;2022-10-16T16:53:40;8.50;;;3.40;;
950;SDS011;462;48.758;9.256;2022-10-16T17:01:43;9.23;;;3.87;;
950;SDS011;462;48.758;9.256;2022-10-16T17:09:46;12.73;;;4.50;;
950;SDS011;462;48.758;9.256;2022-10-16T17:17:49;10.70;;;3.60;;
950;SDS011;462;48.758;9.256;2022-10-16T17:25:53;11.47;;;3.90;;
950;SDS011;462;48.758;9.256;2022-10-16T17:33:56;15.53;;;5.57;;
950;SDS011;462;48.758;9.256;2022-10-16T17:42:00;16.63;;;5.40;;
950;SDS011;462;48.758;9.256;2022-10-16T17:50:03;5.83;;;4.33;;
950;SDS011;462;48.758;9.256;2022-10-16T17:58:07;7.80;;;3.50;;
950;SDS011;462;48.758;9.256;2022-10-16T18:06:10;8.43;;;4.10;;
950;SDS011;462;48.758;9.256;2022-10-16T18:14:14;10.20;;;4.30;;
950;SDS011;462;48.758;9.256;2022-10-16T18:22:17;10.63;;;4.87;;
950;SDS011;462;48.758;9.256;2022-10-16T18:30:21;6.90;;;5.20;;
950;SDS011;462;48.758;9.256;2022-10-16T18:38:23;11.03;;;4.63;;
950;SDS011;462;48.758;9.256;2022-10-16T18:46:27;9.97;;;5.60;;
950;SDS011;462;48.758;9.256;2022-10-16T18:54:30;10.40;;;4.97;;
950;SDS011;462;48.758;9.256;2022-10-16T19:02:34;7.50;;;4.93;;
950;SDS011;462;48.758;9.256;2022-10-16T19:10:36;14.50;;;4.77;;
950;SDS011;462;48.758;9.256;2022-10-16T19:18:42;10.63;;;5.20;;
950;SDS011;462;48.758;9.256;2022-10-16T19:26:44;6.67;;;4.33;;
950;SDS011;462;48.758;9.256;2022-10-16T19:34:49;8.47;;;5.53;;
950;SDS011;462;48.758;9.256;2022-10-16T19:42:52;13.43;;;5.50;;
950;SDS011;462;48.758;9.256;2022-10-16T19:50:55;12.03;;;5.03;;
950;SDS011;462;48.758;9.256;2022-10-16T19:58:58;10.93;;;5.60;;
950;SDS011;462;48.758;9.256;2022-10-16T20:07:02;11.40;;;5.10;;
950;SDS011;462;48.758;9.256;2022-10-16T20:15:05;12.10;;;5.70;;
950;SDS011;462;48.758;9.256;2022-10-16T20:23:10;7.70;;;5.40;;
950;SDS011;462;48.758;9.256;2022-10-16T20:31:13;10.77;;;5.70;;
950;SDS011;462;48.758;9.256;2022-10-16T20:39:18;10.33;;;5.43;;
950;SDS011;462;48.758;9.256;2022-10-16T20:47:21;8.67;;;5.37;;
950;SDS011;462;48.758;9.256;2022-10-16T20:55:25;8.90;;;5.40;;
950;SDS011;462;48.758;9.256;2022-10-16T21:03:27;6.57;;;4.87;;
950;SDS011;462;48.758;9.256;2022-10-16T21:11:32;9.33;;;5.40;;
950;SDS011;462;48.758;9.256;2022-10-16T21:19:35;9.17;;;4.97;;
950;SDS011;462;48.758;9.256;2022-10-16T21:27:39;6.90;;;4.80;;
950;SDS011;462;48.758;9.256;2022-10-16T21:35:42;11.13;;;4.97;;
950;SDS011;462;48.758;9.256;2022-10-16T21:43:46;8.90;;;4.50;;
950;SDS011;462;48.758;9.256;2022-10-16T22:00:48;9.93;;;4.37;;
950;SDS011;462;48.758;9.256;2022-10-16T22:08:51;9.33;;;5.00;;
950;SDS011;462;48.758;9.256;2022-10-16T22:16:56;9.13;;;4.83;;
950;SDS011;462;48.758;9.256;2022-10-16T22:24:58;11.53;;;4.23;;
950;SDS011;462;48.758;9.256;2022-10-16T22:33:02;9.17;;;4.30;;
950;SDS011;462;48.758;9.256;2022-10-16T22:41:06;6.93;;;4.07;;
950;SDS011;462;48.758;9.256;2022-10-16T22:49:11;5.73;;;4.40;;
950;SDS011;462;48.758;9.256;2022-10-16T22:57:15;4.80;;;3.93;;
950;SDS011;462;48.758;9.256;2022-10-16T23:05:19;12.03;;;4.50;;
950;SDS011;462;48.758;9.256;2022-10-16T23:13:21;8.43;;;4.20;;
950;SDS011;462;48.758;9.256;2022-10-16T23:21:25;11.53;;;3.93;;
950;SDS011;462;48.758;9.256;2022-10-16T23:29:28;11.20;;;4.27;;
950;SDS011;462;48.758;9.256;2022-10-16T23:37:32;8.20;;;3.63;;
950;SDS011;462;48.758;9.256;2022-10-16T23:45:34;9.67;;;3.90;;
950;SDS011;462;48.758;9.256;2022-10-16T23:53:38;5.60;;;3.60;;
